Time;durP1;ratioP1;P1;durP2;ratioP2;P2;SDS_P1;SDS_P2;PMS_P1;PMS_P2;Temp;Humidity;BMP_temperature;BMP_pressure;BME280_temperature;BME280_humidity;BME280_pressure;Samples;Min_cycle;Max_cycle;Signal;HPM_P1;HPM_P2
2021/03/25 00:00:07;;;;;;;54.90;45.78;;;;;;;;;;5054797;28;20545;-75
2021/03/25 00:02:37;;;;;;;56.42;43.53;;;;;;;;;;5059575;28;20207;-75
2021/03/25 00:05:05;;;;;;;54.22;43.90;;;;;;;;;;5064979;28;20196;-75
2021/03/25 00:07:34;;;;;;;59.47;47.33;;;;;;;;;;5062976;28;20191;-74
2021/03/25 00:10:03;;;;;;;78.22;48.42;;;;;;;;;;5067309;28;20450;-74
2021/03/25 00:12:30;;;;;;;56.47;45.28;;;;;;;;;;5056079;28;20191;-75
2021/03/25 00:14:58;;;;;;;53.15;45.60;;;;;;;;;;5055906;28;20226;-75
2021/03/25 00:17:24;;;;;;;54.75;45.38;;;;;;;;;;5054095;28;20318;-75
2021/03/25 00:19:51;;;;;;;53.80;46.35;;;;;;;;;;5055146;28;20192;-75
2021/03/25 00:22:18;;;;;;;59.35;44.45;;;;;;;;;;5053349;28;20238;-75
2021/03/25 00:24:45;;;;;;;55.00;45.85;;;;;;;;;;5054730;28;20201;-76
2021/03/25 00:27:12;;;;;;;56.65;44.17;;;;;;;;;;5054510;28;20200;-75
2021/03/25 00:29:40;;;;;;;52.50;44.60;;;;;;;;;;5055614;28;20188;-75
2021/03/25 00:32:08;;;;;;;55.53;47.92;;;;;;;;;;5057088;28;20207;-75
2021/03/25 00:34:36;;;;;;;58.85;46.15;;;;;;;;;;5057069;28;20584;-75
2021/03/25 00:37:04;;;;;;;55.80;45.50;;;;;;;;;;5054489;28;20260;-75
2021/03/25 00:39:31;;;;;;;59.22;45.95;;;;;;;;;;5055640;28;20656;-75
2021/03/25 00:41:58;;;;;;;54.92;46.95;;;;;;;;;;5055327;28;20194;-75
2021/03/25 00:44:25;;;;;;;58.70;49.88;;;;;;;;;;5055507;28;20675;-74
2021/03/25 00:46:53;;;;;;;70.78;50.15;;;;;;;;;;5055777;28;20655;-75
2021/03/25 00:49:22;;;;;;;57.25;48.10;;;;;;;;;;5056144;28;20193;-74
2021/03/25 00:51:49;;;;;;;63.03;48.33;;;;;;;;;;5055400;28;20206;-75
2021/03/25 00:54:18;;;;;;;71.35;50.85;;;;;;;;;;5054335;28;20214;-75
2021/03/25 00:56:44;;;;;;;60.10;50.38;;;;;;;;;;5054789;28;20312;-74
2021/03/25 00:59:12;;;;;;;59.63;48.15;;;;;;;;;;5055750;28;20191;-74
2021/03/25 01:01:39;;;;;;;63.35;48.45;;;;;;;;;;5055876;28;20644;-74
2021/03/25 01:04:07;;;;;;;60.40;48.92;;;;;;;;;;5059984;28;20199;-75
2021/03/25 01:06:34;;;;;;;63.83;48.75;;;;;;;;;;5060201;28;20206;-74
2021/03/25 01:09:01;;;;;;;69.28;49.88;;;;;;;;;;5059565;28;20247;-74
2021/03/25 01:11:30;;;;;;;61.00;48.03;;;;;;;;;;5059922;28;20191;-74
2021/03/25 01:13:58;;;;;;;65.88;50.22;;;;;;;;;;5059567;28;20220;-74
2021/03/25 01:16:27;;;;;;;63.53;49.92;;;;;;;;;;5059086;28;20610;-74
2021/03/25 01:18:54;;;;;;;72.03;55.17;;;;;;;;;;5058508;28;20237;-74
2021/03/25 01:21:23;;;;;;;64.85;50.13;;;;;;;;;;5058664;28;20198;-74
2021/03/25 01:23:50;;;;;;;70.60;53.25;;;;;;;;;;5059886;28;20206;-74
2021/03/25 01:26:17;;;;;;;71.38;52.20;;;;;;;;;;5058817;28;20199;-74
2021/03/25 01:28:44;;;;;;;70.38;51.67;;;;;;;;;;5057673;28;20683;-74
2021/03/25 01:31:11;;;;;;;65.03;51.33;;;;;;;;;;5058371;28;20549;-74
2021/03/25 01:33:39;;;;;;;67.35;51.42;;;;;;;;;;5058379;28;20199;-74
2021/03/25 01:36:06;;;;;;;66.45;51.00;;;;;;;;;;5057767;28;20222;-74
2021/03/25 01:38:34;;;;;;;64.55;50.70;;;;;;;;;;5058303;28;20194;-74
2021/03/25 01:41:02;;;;;;;63.13;49.13;;;;;;;;;;5058218;28;20195;-74
2021/03/25 01:43:31;;;;;;;64.90;53.55;;;;;;;;;;5057989;28;20195;-74
2021/03/25 01:46:07;;;;;;;73.40;52.67;;;;;;;;;;5058183;28;20251;-74
2021/03/25 01:48:35;;;;;;;80.20;53.40;;;;;;;;;;5058606;28;20198;-74
2021/03/25 01:51:20;;;;;;;64.45;51.90;;;;;;;;;;5062060;28;20644;-74
2021/03/25 01:54:02;;;;;;;67.25;51.33;;;;;;;;;;5057962;28;20284;-74
2021/03/25 01:56:37;;;;;;;74.68;54.10;;;;;;;;;;5058131;28;20199;-74
2021/03/25 01:59:19;;;;;;;72.32;53.97;;;;;;;;;;5056517;28;20209;-74
2021/03/25 02:01:51;;;;;;;66.65;50.60;;;;;;;;;;5044538;28;20214;-74
2021/03/25 02:04:23;;;;;;;72.65;52.25;;;;;;;;;;5056421;28;20202;-74
2021/03/25 02:06:57;;;;;;;75.38;52.75;;;;;;;;;;5056147;28;20193;-74
2021/03/25 02:09:31;;;;;;;71.68;53.70;;;;;;;;;;5055288;28;20227;-74
2021/03/25 02:12:12;;;;;;;71.97;53.30;;;;;;;;;;5058304;28;20226;-74
2021/03/25 02:14:46;;;;;;;75.80;55.45;;;;;;;;;;5057312;28;20283;-73
2021/03/25 02:17:22;;;;;;;70.03;53.45;;;;;;;;;;5058421;28;20560;-74
2021/03/25 02:20:09;;;;;;;73.85;53.78;;;;;;;;;;5060290;28;20206;-73
2021/03/25 02:25:54;;;;;;;77.78;57.40;;;;;;;;;;5060750;28;20262;-74
2021/03/25 02:28:31;;;;;;;73.95;53.83;;;;;;;;;;5060430;28;20199;-74
2021/03/25 02:31:07;;;;;;;71.18;51.60;;;;;;;;;;5061394;28;20593;-75
2021/03/25 02:33:35;;;;;;;75.45;52.17;;;;;;;;;;5060997;28;20215;-74
2021/03/25 02:36:04;;;;;;;75.75;52.47;;;;;;;;;;5059923;28;20562;-74
2021/03/25 02:38:35;;;;;;;72.05;51.83;;;;;;;;;;5060246;28;20202;-74
2021/03/25 02:41:05;;;;;;;80.93;55.08;;;;;;;;;;5059620;28;20191;-75
2021/03/25 02:43:36;;;;;;;75.50;56.88;;;;;;;;;;5059659;28;20191;-75
2021/03/25 02:46:06;;;;;;;65.47;52.03;;;;;;;;;;5059797;28;20204;-75
2021/03/25 02:48:34;;;;;;;77.38;53.33;;;;;;;;;;5059305;28;20201;-74
2021/03/25 02:51:10;;;;;;;76.22;53.30;;;;;;;;;;5058681;28;20186;-74
2021/03/25 02:54:03;;;;;;;74.40;53.85;;;;;;;;;;5057375;28;20231;-74
2021/03/25 02:56:33;;;;;;;74.03;55.08;;;;;;;;;;5059241;28;20324;-73
2021/03/25 02:59:00;;;;;;;85.40;58.67;;;;;;;;;;5058809;28;20202;-73
2021/03/25 03:01:28;;;;;;;79.13;60.22;;;;;;;;;;5057488;28;20194;-73
2021/03/25 03:04:00;;;;;;;85.00;59.38;;;;;;;;;;5056831;28;20197;-74
2021/03/25 03:06:30;;;;;;;77.28;57.00;;;;;;;;;;5056255;28;20191;-73
2021/03/25 03:09:00;;;;;;;83.07;57.38;;;;;;;;;;5056120;28;20253;-73
2021/03/25 03:11:29;;;;;;;84.10;58.85;;;;;;;;;;5055830;28;20206;-73
2021/03/25 03:13:59;;;;;;;81.72;59.13;;;;;;;;;;5056278;28;20189;-73
2021/03/25 03:16:30;;;;;;;81.93;59.38;;;;;;;;;;5056753;28;20216;-74
2021/03/25 03:19:01;;;;;;;85.30;61.25;;;;;;;;;;5054902;28;20233;-74
2021/03/25 03:21:32;;;;;;;88.85;59.63;;;;;;;;;;5056410;28;20217;-74
2021/03/25 03:24:00;;;;;;;84.70;60.50;;;;;;;;;;5057471;28;20213;-74
2021/03/25 03:26:37;;;;;;;89.63;60.35;;;;;;;;;;5057175;28;20213;-74
2021/03/25 03:29:06;;;;;;;88.97;62.70;;;;;;;;;;5056771;28;20240;-72
2021/03/25 03:31:37;;;;;;;84.95;60.30;;;;;;;;;;5056950;28;20208;-74
2021/03/25 03:34:14;;;;;;;78.22;60.58;;;;;;;;;;5056757;28;20197;-75
2021/03/25 03:36:47;;;;;;;75.85;57.03;;;;;;;;;;5058268;28;20201;-74
2021/03/25 03:39:18;;;;;;;77.68;57.78;;;;;;;;;;5056288;28;20263;-75
2021/03/25 03:41:46;;;;;;;74.13;55.20;;;;;;;;;;5056397;28;20198;-74
2021/03/25 03:44:22;;;;;;;74.82;57.28;;;;;;;;;;5057080;28;20250;-74
2021/03/25 03:46:50;;;;;;;79.70;57.83;;;;;;;;;;5056168;28;20229;-75
2021/03/25 03:49:22;;;;;;;77.82;56.92;;;;;;;;;;5055259;28;20190;-74
2021/03/25 03:51:52;;;;;;;76.63;56.03;;;;;;;;;;5056060;28;20197;-75
2021/03/25 03:54:19;;;;;;;79.53;58.50;;;;;;;;;;5055033;28;20544;-75
2021/03/25 03:56:53;;;;;;;74.10;58.22;;;;;;;;;;5054829;28;20631;-74
2021/03/25 03:59:25;;;;;;;74.45;58.17;;;;;;;;;;5055399;28;20575;-74
2021/03/25 04:01:53;;;;;;;73.88;53.88;;;;;;;;;;5054306;28;20225;-74
2021/03/25 04:04:27;;;;;;;82.55;57.63;;;;;;;;;;5055905;28;20194;-75
2021/03/25 04:06:57;;;;;;;70.93;54.28;;;;;;;;;;5055163;28;20205;-74
2021/03/25 04:09:29;;;;;;;73.10;54.85;;;;;;;;;;5054356;28;20226;-73
2021/03/25 04:11:58;;;;;;;79.57;57.65;;;;;;;;;;5055123;28;20189;-74
2021/03/25 04:14:27;;;;;;;85.35;57.00;;;;;;;;;;5053613;28;20671;-73
2021/03/25 04:16:56;;;;;;;81.95;59.70;;;;;;;;;;5054036;28;20255;-74
2021/03/25 04:19:26;;;;;;;85.45;60.90;;;;;;;;;;5053937;28;20228;-74
2021/03/25 04:21:55;;;;;;;84.70;58.28;;;;;;;;;;5052432;28;20184;-74
2021/03/25 04:24:24;;;;;;;81.53;58.15;;;;;;;;;;5053657;28;20548;-74
2021/03/25 04:26:53;;;;;;;93.05;61.00;;;;;;;;;;5053534;28;20238;-74
2021/03/25 04:29:21;;;;;;;84.90;60.97;;;;;;;;;;5054152;28;20700;-74
2021/03/25 04:31:48;;;;;;;84.35;60.15;;;;;;;;;;5053843;28;20194;-74
2021/03/25 04:34:15;;;;;;;76.07;57.28;;;;;;;;;;5053730;28;20211;-74
2021/03/25 04:36:44;;;;;;;84.75;58.85;;;;;;;;;;5052359;28;20246;-74
2021/03/25 04:39:12;;;;;;;85.53;62.22;;;;;;;;;;5057025;28;20185;-74
2021/03/25 04:41:40;;;;;;;86.53;62.03;;;;;;;;;;5057738;28;20190;-74
2021/03/25 04:44:09;;;;;;;85.63;59.67;;;;;;;;;;5057753;28;20190;-74
2021/03/25 04:46:40;;;;;;;90.63;61.95;;;;;;;;;;5057359;28;20190;-74
2021/03/25 04:49:10;;;;;;;91.22;60.78;;;;;;;;;;5058564;28;20192;-74
2021/03/25 04:51:37;;;;;;;90.70;62.65;;;;;;;;;;5057365;28;20636;-74
2021/03/25 04:54:13;;;;;;;85.00;58.13;;;;;;;;;;5057390;28;20550;-74
2021/03/25 04:56:40;;;;;;;84.63;62.58;;;;;;;;;;5056988;28;20193;-73
2021/03/25 04:59:08;;;;;;;90.88;61.38;;;;;;;;;;5058101;28;20201;-73
2021/03/25 05:01:35;;;;;;;88.63;59.58;;;;;;;;;;5057139;28;20683;-73
2021/03/25 05:04:02;;;;;;;78.15;58.33;;;;;;;;;;5057321;28;20253;-73
2021/03/25 05:06:30;;;;;;;85.65;59.15;;;;;;;;;;5057374;28;20199;-73
2021/03/25 05:08:59;;;;;;;88.40;61.00;;;;;;;;;;5056884;28;20221;-73
2021/03/25 05:11:28;;;;;;;84.25;57.72;;;;;;;;;;5057114;28;20186;-73
2021/03/25 05:13:58;;;;;;;76.45;53.88;;;;;;;;;;5057545;28;20193;-72
2021/03/25 05:16:28;;;;;;;84.93;62.47;;;;;;;;;;5056857;28;20222;-74
2021/03/25 05:18:58;;;;;;;90.07;62.30;;;;;;;;;;5056638;28;20237;-73
2021/03/25 05:21:27;;;;;;;92.13;65.35;;;;;;;;;;5056870;28;20281;-73
2021/03/25 05:23:56;;;;;;;93.47;61.78;;;;;;;;;;5055710;28;20662;-72
2021/03/25 05:26:26;;;;;;;88.57;62.42;;;;;;;;;;5056161;28;20525;-73
2021/03/25 05:28:59;;;;;;;95.45;62.22;;;;;;;;;;5057005;28;20212;-72
2021/03/25 05:31:28;;;;;;;78.82;58.67;;;;;;;;;;5056493;28;20194;-72
2021/03/25 05:33:56;;;;;;;87.68;57.13;;;;;;;;;;5056703;28;20193;-72
2021/03/25 05:36:23;;;;;;;92.28;61.70;;;;;;;;;;5056645;28;20271;-71
2021/03/25 05:38:50;;;;;;;80.22;58.30;;;;;;;;;;5056594;28;20193;-72
2021/03/25 05:41:25;;;;;;;80.35;57.33;;;;;;;;;;5056379;28;20659;-72
2021/03/25 05:44:09;;;;;;;96.65;63.45;;;;;;;;;;5055394;28;20190;-73
2021/03/25 05:46:39;;;;;;;89.80;61.17;;;;;;;;;;5055959;28;20198;-73
2021/03/25 05:49:13;;;;;;;94.93;63.78;;;;;;;;;;5054400;28;20205;-72
2021/03/25 05:51:46;;;;;;;99.07;64.30;;;;;;;;;;5056444;28;20572;-73
2021/03/25 05:54:19;;;;;;;86.30;61.00;;;;;;;;;;5055856;28;20544;-73
2021/03/25 05:56:51;;;;;;;79.80;60.53;;;;;;;;;;5055462;28;20198;-73
2021/03/25 05:59:21;;;;;;;94.03;66.25;;;;;;;;;;5055470;28;20189;-73
2021/03/25 06:01:56;;;;;;;96.20;65.72;;;;;;;;;;5055432;28;20203;-73
2021/03/25 06:04:25;;;;;;;93.97;63.25;;;;;;;;;;5055779;28;20631;-73
2021/03/25 06:06:58;;;;;;;93.32;65.57;;;;;;;;;;5054456;28;20653;-73
2021/03/25 06:09:30;;;;;;;96.95;64.30;;;;;;;;;;5055553;28;20239;-73
2021/03/25 06:12:00;;;;;;;93.67;63.70;;;;;;;;;;5055793;28;20198;-73
2021/03/25 06:14:38;;;;;;;99.68;63.15;;;;;;;;;;5055385;28;20452;-72
2021/03/25 06:17:13;;;;;;;86.20;63.95;;;;;;;;;;5054961;28;20648;-73
2021/03/25 06:19:59;;;;;;;84.50;60.50;;;;;;;;;;5055691;28;20190;-73
2021/03/25 06:22:32;;;;;;;93.60;61.95;;;;;;;;;;5056049;28;20206;-74
2021/03/25 06:25:19;;;;;;;87.25;62.67;;;;;;;;;;5057082;28;20554;-74
2021/03/25 06:27:56;;;;;;;93.07;64.97;;;;;;;;;;5056451;28;20192;-73
2021/03/25 06:30:26;;;;;;;88.40;62.25;;;;;;;;;;5056359;28;20198;-72
2021/03/25 06:32:56;;;;;;;87.30;63.05;;;;;;;;;;5055463;28;20216;-73
2021/03/25 06:35:27;;;;;;;93.63;65.03;;;;;;;;;;5055043;28;20696;-73
2021/03/25 06:37:57;;;;;;;86.68;65.93;;;;;;;;;;5054902;28;20215;-72
2021/03/25 06:40:25;;;;;;;86.57;61.45;;;;;;;;;;5056048;28;20188;-74
2021/03/25 06:42:56;;;;;;;86.35;64.78;;;;;;;;;;5054790;28;20195;-74
2021/03/25 06:45:25;;;;;;;94.88;64.28;;;;;;;;;;5055316;28;20200;-73
2021/03/25 06:47:58;;;;;;;98.47;67.85;;;;;;;;;;5054763;28;20661;-73
2021/03/25 06:50:27;;;;;;;91.65;64.05;;;;;;;;;;5055266;28;20221;-73
2021/03/25 06:52:57;;;;;;;88.20;61.10;;;;;;;;;;5054742;28;20664;-73
2021/03/25 06:55:26;;;;;;;93.13;65.93;;;;;;;;;;5053676;28;20489;-73
2021/03/25 06:57:55;;;;;;;92.55;65.10;;;;;;;;;;5054784;28;20471;-73
2021/03/25 07:00:26;;;;;;;117.70;67.40;;;;;;;;;;5054601;28;20202;-72
2021/03/25 07:02:54;;;;;;;103.97;68.82;;;;;;;;;;5054665;28;20905;-73
2021/03/25 07:05:23;;;;;;;98.10;65.85;;;;;;;;;;5053389;28;20303;-73
2021/03/25 07:07:57;;;;;;;93.75;65.95;;;;;;;;;;5054704;28;20570;-73
2021/03/25 07:10:24;;;;;;;94.35;66.90;;;;;;;;;;5054860;28;20194;-73
2021/03/25 07:12:51;;;;;;;102.97;71.15;;;;;;;;;;5054642;28;20187;-73
2021/03/25 07:15:22;;;;;;;102.53;65.17;;;;;;;;;;5052950;28;20297;-73
2021/03/25 07:17:50;;;;;;;95.45;66.65;;;;;;;;;;5054109;28;20514;-73
2021/03/25 07:20:20;;;;;;;99.63;67.93;;;;;;;;;;5054447;28;20188;-72
2021/03/25 07:22:59;;;;;;;93.78;67.90;;;;;;;;;;5054468;28;20188;-73
2021/03/25 07:25:26;;;;;;;100.07;69.65;;;;;;;;;;5054790;28;20188;-73
2021/03/25 07:27:53;;;;;;;94.28;71.70;;;;;;;;;;5054056;28;20570;-73
2021/03/25 07:30:21;;;;;;;94.80;68.50;;;;;;;;;;5053991;28;20291;-73
2021/03/25 07:32:52;;;;;;;92.85;61.00;;;;;;;;;;5054276;28;20413;-73
2021/03/25 07:35:44;;;;;;;79.55;59.00;;;;;;;;;;5053934;28;20222;-72
2021/03/25 07:38:19;;;;;;;80.07;60.50;;;;;;;;;;5054832;28;20244;-72
2021/03/25 07:40:46;;;;;;;75.57;58.73;;;;;;;;;;5054393;28;20436;-73
2021/03/25 07:43:15;;;;;;;59.90;52.03;;;;;;;;;;5054343;28;20841;-73
2021/03/25 07:45:43;;;;;;;64.40;50.70;;;;;;;;;;5054355;28;20414;-73
2021/03/25 07:48:21;;;;;;;74.13;54.90;;;;;;;;;;5054132;28;20780;-72
2021/03/25 07:50:50;;;;;;;70.87;53.80;;;;;;;;;;5054469;28;20441;-73
2021/03/25 07:53:18;;;;;;;64.63;51.63;;;;;;;;;;5054274;28;20417;-73
2021/03/25 07:55:45;;;;;;;66.63;52.42;;;;;;;;;;5054248;28;20861;-73
2021/03/25 07:58:18;;;;;;;70.13;51.20;;;;;;;;;;5053915;28;20192;-73
2021/03/25 08:00:45;;;;;;;67.50;49.47;;;;;;;;;;5054615;28;20434;-73
2021/03/25 08:03:17;;;;;;;62.40;49.77;;;;;;;;;;5053859;28;20407;-73
2021/03/25 08:05:44;;;;;;;51.37;45.03;;;;;;;;;;5053773;28;20445;-73
2021/03/25 08:08:25;;;;;;;58.57;47.00;;;;;;;;;;5055585;28;20478;-72
2021/03/25 08:10:53;;;;;;;48.57;43.60;;;;;;;;;;5054486;28;20420;-72
2021/03/25 08:13:21;;;;;;;50.20;43.77;;;;;;;;;;5053993;28;20913;-72
2021/03/25 08:15:49;;;;;;;54.20;45.93;;;;;;;;;;5053088;28;20471;-73
2021/03/25 08:18:34;;;;;;;52.43;44.50;;;;;;;;;;5053782;28;20844;-72
2021/03/25 08:21:06;;;;;;;52.00;44.60;;;;;;;;;;5053642;28;20790;-72
2021/03/25 08:23:48;;;;;;;48.77;43.13;;;;;;;;;;5053906;28;20451;-74
2021/03/25 08:26:19;;;;;;;50.30;44.03;;;;;;;;;;5053862;28;20576;-74
2021/03/25 08:29:04;;;;;;;50.27;44.87;;;;;;;;;;5054143;28;20464;-73
2021/03/25 08:31:38;;;;;;;52.97;45.67;;;;;;;;;;5053037;28;20962;-74
2021/03/25 08:34:12;;;;;;;53.57;43.70;;;;;;;;;;5053752;28;20419;-73
2021/03/25 08:36:46;;;;;;;50.43;44.97;;;;;;;;;;5054088;28;20509;-73
2021/03/25 08:39:27;;;;;;;55.40;46.77;;;;;;;;;;5053034;28;20428;-74
2021/03/25 08:41:58;;;;;;;61.73;47.60;;;;;;;;;;5052059;28;20454;-73
2021/03/25 08:44:29;;;;;;;56.23;45.10;;;;;;;;;;5056066;28;20420;-74
2021/03/25 08:46:57;;;;;;;61.07;47.53;;;;;;;;;;5053903;28;20413;-74
2021/03/25 08:49:28;;;;;;;51.70;45.77;;;;;;;;;;5052244;28;20408;-74
2021/03/25 08:51:56;;;;;;;56.83;48.30;;;;;;;;;;5053847;28;20431;-74
2021/03/25 08:54:26;;;;;;;55.80;49.70;;;;;;;;;;5053768;28;20425;-74
2021/03/25 08:56:55;;;;;;;58.93;47.33;;;;;;;;;;5052509;28;20457;-73
2021/03/25 08:59:25;;;;;;;55.13;45.73;;;;;;;;;;5053655;28;20986;-74
2021/03/25 09:01:53;;;;;;;50.97;45.07;;;;;;;;;;5053662;28;20444;-74
2021/03/25 09:04:21;;;;;;;53.63;45.77;;;;;;;;;;5053198;28;20429;-73
2021/03/25 09:06:50;;;;;;;50.30;43.60;;;;;;;;;;5053453;28;20425;-73
2021/03/25 09:09:33;;;;;;;53.63;46.53;;;;;;;;;;5052626;28;20444;-73
2021/03/25 09:12:01;;;;;;;52.47;45.33;;;;;;;;;;5052041;28;20892;-73
2021/03/25 09:14:30;;;;;;;60.00;47.77;;;;;;;;;;5052390;28;20438;-74
2021/03/25 09:17:01;;;;;;;61.83;46.70;;;;;;;;;;5052903;28;20468;-73
2021/03/25 09:19:30;;;;;;;55.93;46.63;;;;;;;;;;5052601;28;20919;-73
2021/03/25 09:21:58;;;;;;;51.83;44.83;;;;;;;;;;5051499;28;20932;-72
2021/03/25 09:24:25;;;;;;;61.80;50.10;;;;;;;;;;5054577;28;20409;-73
2021/03/25 09:26:55;;;;;;;57.13;47.70;;;;;;;;;;5056122;28;20458;-72
2021/03/25 09:29:23;;;;;;;57.53;47.20;;;;;;;;;;5056489;28;20503;-74
2021/03/25 09:32:17;;;;;;;66.60;49.87;;;;;;;;;;5056468;28;20445;-73
2021/03/25 09:34:46;;;;;;;55.30;47.80;;;;;;;;;;4994412;28;20427;-73
2021/03/25 09:37:22;;;;;;;60.13;48.90;;;;;;;;;;4994676;28;20451;-73
2021/03/25 09:40:04;;;;;;;57.07;49.13;;;;;;;;;;4994343;28;20422;-75
2021/03/25 09:42:32;;;;;;;53.10;47.30;;;;;;;;;;4982903;28;20424;-73
2021/03/25 09:44:59;;;;;;;55.23;47.97;;;;;;;;;;4978526;28;20457;-73
2021/03/25 09:47:30;;;;;;;54.37;46.80;;;;;;;;;;4994936;28;20420;-72
2021/03/25 09:49:58;;;;;;;51.07;45.73;;;;;;;;;;4995016;28;20483;-72
2021/03/25 09:52:28;;;;;;;61.23;49.70;;;;;;;;;;4995083;28;20485;-73
2021/03/25 09:55:13;;;;;;;54.00;48.00;;;;;;;;;;4994902;28;20492;-73
2021/03/25 09:57:41;;;;;;;54.20;46.67;;;;;;;;;;4978367;28;20428;-72
2021/03/25 10:00:10;;;;;;;54.73;46.53;;;;;;;;;;4995290;28;20412;-73
2021/03/25 10:02:53;;;;;;;55.63;48.77;;;;;;;;;;4994602;28;20404;-72
2021/03/25 10:05:28;;;;;;;59.07;49.97;;;;;;;;;;4994623;28;20463;-72
2021/03/25 10:07:56;;;;;;;54.20;47.80;;;;;;;;;;4994412;28;20476;-72
2021/03/25 10:10:38;;;;;;;59.10;48.63;;;;;;;;;;5024912;28;20479;-72
2021/03/25 10:13:19;;;;;;;57.90;48.80;;;;;;;;;;5055563;28;20933;-72
2021/03/25 10:15:49;;;;;;;55.27;49.33;;;;;;;;;;5051742;28;20459;-72
2021/03/25 10:18:30;;;;;;;53.67;47.43;;;;;;;;;;5055636;28;20543;-73
2021/03/25 10:20:58;;;;;;;58.83;50.43;;;;;;;;;;5043136;28;20432;-72
2021/03/25 10:23:26;;;;;;;65.03;50.20;;;;;;;;;;5055663;28;20442;-73
2021/03/25 10:25:54;;;;;;;58.50;50.30;;;;;;;;;;5055212;28;20951;-73
2021/03/25 10:28:23;;;;;;;64.93;50.90;;;;;;;;;;5055485;28;20485;-73
2021/03/25 10:30:55;;;;;;;60.03;50.07;;;;;;;;;;5054990;28;20492;-72
2021/03/25 10:33:23;;;;;;;61.10;49.70;;;;;;;;;;5055423;28;20405;-73
2021/03/25 10:35:52;;;;;;;61.17;49.53;;;;;;;;;;5054973;28;20457;-73
2021/03/25 10:38:21;;;;;;;62.07;51.87;;;;;;;;;;5055113;28;20821;-73
2021/03/25 10:40:48;;;;;;;63.63;52.40;;;;;;;;;;5056274;28;20763;-73
2021/03/25 10:43:16;;;;;;;62.40;52.63;;;;;;;;;;5055056;28;20417;-71
2021/03/25 10:45:48;;;;;;;63.13;49.53;;;;;;;;;;5055042;28;20483;-71
2021/03/25 10:48:20;;;;;;;54.93;48.10;;;;;;;;;;5053666;28;20420;-71
2021/03/25 10:50:49;;;;;;;60.30;50.50;;;;;;;;;;5054771;28;20784;-72
2021/03/25 10:53:17;;;;;;;60.40;48.20;;;;;;;;;;5054815;28;20425;-72
2021/03/25 10:55:45;;;;;;;53.73;48.07;;;;;;;;;;5054527;28;20942;-72
2021/03/25 10:58:21;;;;;;;56.07;50.10;;;;;;;;;;5055033;28;20409;-71
2021/03/25 11:00:48;;;;;;;62.90;52.87;;;;;;;;;;5053503;28;20465;-72
2021/03/25 11:03:21;;;;;;;59.90;52.27;;;;;;;;;;5054765;28;20932;-72
2021/03/25 11:05:52;;;;;;;58.60;51.43;;;;;;;;;;5053664;28;20425;-72
2021/03/25 11:08:30;;;;;;;60.07;52.67;;;;;;;;;;5054700;28;20445;-72
2021/03/25 11:10:57;;;;;;;61.07;50.60;;;;;;;;;;5054575;28;20405;-72
2021/03/25 11:13:25;;;;;;;59.87;53.30;;;;;;;;;;5054714;28;20492;-72
2021/03/25 11:15:57;;;;;;;63.53;51.27;;;;;;;;;;5054534;28;20486;-71
2021/03/25 11:18:26;;;;;;;64.23;54.30;;;;;;;;;;5054229;28;20464;-72
2021/03/25 11:20:54;;;;;;;56.63;49.70;;;;;;;;;;5054825;28;20439;-72
2021/03/25 11:23:22;;;;;;;68.20;54.30;;;;;;;;;;5054581;28;20420;-73
2021/03/25 11:25:53;;;;;;;68.87;53.17;;;;;;;;;;5054467;28;20800;-73
2021/03/25 11:28:20;;;;;;;71.13;53.90;;;;;;;;;;5054058;28;20496;-73
2021/03/25 11:30:48;;;;;;;65.60;53.90;;;;;;;;;;5054827;28;20451;-72
2021/03/25 11:33:22;;;;;;;60.77;50.10;;;;;;;;;;5054156;28;20414;-72
2021/03/25 11:35:50;;;;;;;62.43;51.73;;;;;;;;;;5052765;28;20461;-72
2021/03/25 11:38:28;;;;;;;59.10;50.80;;;;;;;;;;5054341;28;20897;-72
2021/03/25 11:40:57;;;;;;;62.73;53.37;;;;;;;;;;5054311;28;20435;-73
2021/03/25 11:43:25;;;;;;;59.47;51.00;;;;;;;;;;5053772;28;20409;-74
2021/03/25 11:45:54;;;;;;;59.93;51.33;;;;;;;;;;5053847;28;20458;-74
2021/03/25 11:48:24;;;;;;;61.13;50.93;;;;;;;;;;5053562;28;20477;-74
2021/03/25 11:50:52;;;;;;;58.90;52.47;;;;;;;;;;5053905;28;20435;-73
2021/03/25 11:53:32;;;;;;;64.30;55.37;;;;;;;;;;5054065;28;20458;-72
2021/03/25 11:55:59;;;;;;;63.03;53.20;;;;;;;;;;5053709;28;20453;-72
2021/03/25 11:58:26;;;;;;;65.80;53.70;;;;;;;;;;5053973;28;20450;-72
2021/03/25 12:00:56;;;;;;;70.87;54.30;;;;;;;;;;5053625;28;20445;-73
2021/03/25 12:03:27;;;;;;;65.67;53.93;;;;;;;;;;5053849;28;20451;-73
2021/03/25 12:05:55;;;;;;;62.20;52.80;;;;;;;;;;5053481;28;20443;-72
2021/03/25 12:08:27;;;;;;;59.37;51.57;;;;;;;;;;5053766;28;20462;-73
2021/03/25 12:11:02;;;;;;;69.43;53.30;;;;;;;;;;5053768;28;20453;-73
2021/03/25 12:13:29;;;;;;;69.40;53.80;;;;;;;;;;5053677;28;20996;-72
2021/03/25 12:15:56;;;;;;;66.37;55.13;;;;;;;;;;5053813;28;20463;-73
2021/03/25 12:18:24;;;;;;;65.33;55.57;;;;;;;;;;5053533;28;20454;-72
2021/03/25 12:21:14;;;;;;;67.23;54.47;;;;;;;;;;5054436;28;20437;-72
2021/03/25 12:23:43;;;;;;;65.63;54.90;;;;;;;;;;5053678;28;20478;-72
2021/03/25 12:26:13;;;;;;;67.23;54.87;;;;;;;;;;5053560;28;20419;-72
2021/03/25 12:28:40;;;;;;;63.47;54.43;;;;;;;;;;5053709;28;20419;-72
2021/03/25 12:31:07;;;;;;;73.33;56.50;;;;;;;;;;5053455;28;20432;-72
2021/03/25 12:33:35;;;;;;;63.90;54.27;;;;;;;;;;5053633;28;20423;-73
2021/03/25 12:36:03;;;;;;;65.57;55.43;;;;;;;;;;5053246;28;20453;-72
2021/03/25 12:38:30;;;;;;;67.53;55.87;;;;;;;;;;5053527;28;20496;-72
2021/03/25 12:40:57;;;;;;;64.40;55.40;;;;;;;;;;5053744;28;20419;-73
2021/03/25 12:43:26;;;;;;;68.50;56.07;;;;;;;;;;5053636;28;20426;-72
2021/03/25 12:45:53;;;;;;;61.00;54.17;;;;;;;;;;5053460;28;20406;-72
2021/03/25 12:48:21;;;;;;;68.30;56.97;;;;;;;;;;5053623;28;20419;-72
2021/03/25 12:50:48;;;;;;;72.97;56.23;;;;;;;;;;5053307;28;20879;-72
2021/03/25 12:53:17;;;;;;;84.00;57.60;;;;;;;;;;5053262;28;20413;-72
2021/03/25 12:55:44;;;;;;;67.83;55.73;;;;;;;;;;5053577;28;20449;-72
2021/03/25 12:58:17;;;;;;;71.97;57.40;;;;;;;;;;5053974;28;20489;-73
2021/03/25 13:00:44;;;;;;;70.20;56.20;;;;;;;;;;5057387;28;20428;-73
2021/03/25 13:03:10;;;;;;;71.13;56.83;;;;;;;;;;5055813;28;20420;-73
2021/03/25 13:05:37;;;;;;;74.80;58.33;;;;;;;;;;5057184;28;20426;-72
2021/03/25 13:08:04;;;;;;;69.90;59.33;;;;;;;;;;5057135;28;20961;-73
2021/03/25 13:10:41;;;;;;;70.70;57.87;;;;;;;;;;5057681;28;20742;-71
2021/03/25 13:13:09;;;;;;;71.67;59.40;;;;;;;;;;5057303;28;20914;-72
2021/03/25 13:15:37;;;;;;;68.43;57.97;;;;;;;;;;5057040;28;20458;-72
2021/03/25 13:18:04;;;;;;;68.30;58.10;;;;;;;;;;5057478;28;20460;-72
2021/03/25 13:20:33;;;;;;;71.27;55.53;;;;;;;;;;5056831;28;20429;-72
2021/03/25 13:23:00;;;;;;;71.13;59.10;;;;;;;;;;5057006;28;20421;-72
2021/03/25 13:25:28;;;;;;;70.63;56.60;;;;;;;;;;5056766;28;20857;-73
2021/03/25 13:27:57;;;;;;;70.80;58.00;;;;;;;;;;5057094;28;20479;-73
2021/03/25 13:30:24;;;;;;;67.30;58.70;;;;;;;;;;5055554;28;20421;-73
2021/03/25 13:32:53;;;;;;;65.27;58.03;;;;;;;;;;5056812;28;20459;-72
2021/03/25 13:35:20;;;;;;;77.70;61.97;;;;;;;;;;5054845;28;20410;-72
2021/03/25 13:37:47;;;;;;;73.97;60.73;;;;;;;;;;5055534;28;20426;-73
2021/03/25 13:40:15;;;;;;;68.73;61.27;;;;;;;;;;5056560;28;20402;-72
2021/03/25 13:42:42;;;;;;;67.77;57.87;;;;;;;;;;5056201;28;20443;-72
2021/03/25 13:45:13;;;;;;;68.60;58.57;;;;;;;;;;5056311;28;20429;-72
2021/03/25 13:47:40;;;;;;;66.63;57.97;;;;;;;;;;5056183;28;20953;-72
2021/03/25 13:50:07;;;;;;;70.33;56.63;;;;;;;;;;5056150;28;20409;-72
2021/03/25 13:52:34;;;;;;;65.63;54.67;;;;;;;;;;5056505;28;20427;-73
2021/03/25 13:55:01;;;;;;;65.37;58.37;;;;;;;;;;5056175;28;20440;-72
2021/03/25 13:57:28;;;;;;;61.23;54.70;;;;;;;;;;5055621;28;21042;-72
2021/03/25 13:59:57;;;;;;;60.03;53.53;;;;;;;;;;5056088;28;20781;-72
2021/03/25 14:02:24;;;;;;;65.33;54.77;;;;;;;;;;5054498;28;20466;-73
2021/03/25 14:04:53;;;;;;;60.83;54.30;;;;;;;;;;5056268;28;20501;-76
2021/03/25 14:07:20;;;;;;;58.13;51.73;;;;;;;;;;5056997;28;20511;-75
2021/03/25 14:09:47;;;;;;;62.73;54.93;;;;;;;;;;5054960;28;20437;-75
2021/03/25 14:12:14;;;;;;;67.13;55.20;;;;;;;;;;5056259;28;20435;-75
2021/03/25 14:14:41;;;;;;;62.47;54.27;;;;;;;;;;5056220;28;20450;-75
2021/03/25 14:17:08;;;;;;;59.60;52.27;;;;;;;;;;5055453;28;20486;-74
2021/03/25 14:19:43;;;;;;;62.80;52.80;;;;;;;;;;5059464;28;20424;-75
2021/03/25 14:22:10;;;;;;;63.67;56.73;;;;;;;;;;5057373;28;20449;-75
2021/03/25 14:24:39;;;;;;;67.33;56.43;;;;;;;;;;5056223;28;20441;-73
2021/03/25 14:27:07;;;;;;;58.03;51.67;;;;;;;;;;5055673;28;20911;-75
2021/03/25 14:29:34;;;;;;;64.43;53.20;;;;;;;;;;5056560;28;20409;-75
2021/03/25 14:32:01;;;;;;;55.40;49.50;;;;;;;;;;5056404;28;20403;-75
2021/03/25 14:34:29;;;;;;;66.37;53.53;;;;;;;;;;5056453;28;20777;-75
2021/03/25 14:36:58;;;;;;;63.70;56.50;;;;;;;;;;5055196;28;20510;-75